PANCPAHO

Guest
Details From PANC - Ted Stevens Anchorage Intl
To PAHO - HOMER
Flight Number -
Tags decoded
Created
Modified
Stats Distance 102 nm / 188 km
Max Altitude 0 ft / 0 m
Waypoints 3
Social Downloads 2
Likes 0
Share VATSIM

Download

Looking for another format? Having issues loading an existing format? Contact us
Advertisement - Login to hide

Notes

Requested: PANC NAPTO V438 ZIBVI PAHO Unmatched points: V438 ZIBVI

Route

PANC NAPTO PAHO

ID Type Via Altitude Latitude Longitude Leg Dist Tot Dist Heading (true) Name
O PANC APT - 0 ft / 0 m 61.17411˚ -149.99598˚ - 0 nm - Ted Stevens Anchorage Intl
NAPTO FIX - 0 ft / 0 m 60.78820˚ -150.36452˚ 25 nm 25 nm 205° / 205° -
O PAHO APT - 0 ft / 0 m 59.64555˚ -151.47659˚ 76 nm 101 nm 206° / 205° HOMER

Altitude Profile

Advertisement - Login to hide

PANC

Details ICAO PANC (ANC)
Name Ted Stevens Anchorage Intl
Region USA (Alaska)
Timezone America/Anchorage (UTC-8.0)
Stats Elevation 152 ft / 46 m (AMSL)
Location 61.174111° -149.995982°
Runways 3
Magnetic Variation 16.074° E

METAR

PANC 210253Z 15010KT 10SM FEW045 SCT075 OVC120 11/03 A2948

Decode

TAF

PANC 210239Z 2103/2206 VRB05KT P6SM VCSH BKN070 TEMPO 2103/2106 16010G15KT FM212300 16012G18KT P6SM BKN060 OVC100

Decode

Departure Runways

ID Width Length Bearing (true) Bearing (mag) Surface Threshold Offset Overrun Length
07L 151 ft / 46 m 10,563 ft / 3,220 m 89.88° 73.81° Asphalt 0 ft / 0 m 381 ft / 116 m
07R 151 ft / 46 m 10,862 ft / 3,311 m 89.85° 73.78° Asphalt 0 ft / 0 m 499 ft / 152 m
15 151 ft / 46 m 11,563 ft / 3,524 m 164.90° 148.83° Asphalt 200 ft / 61 m 220 ft / 67 m
25L 151 ft / 46 m 10,862 ft / 3,311 m 269.91° 253.84° Asphalt 0 ft / 0 m 151 ft / 46 m
25R 151 ft / 46 m 10,563 ft / 3,220 m 269.94° 253.87° Asphalt 0 ft / 0 m 381 ft / 116 m
33 151 ft / 46 m 11,563 ft / 3,524 m 344.91° 328.84° Asphalt 892 ft / 272 m 449 ft / 137 m

PAHO

Details ICAO PAHO (HOM)
Name HOMER
Region USA (Alaska)
Timezone America/Anchorage (UTC-8.0)
Stats Elevation 84 ft / 26 m (AMSL)
Location 59.645547° -151.476589°
Runways 1
Magnetic Variation 15.358° E

METAR

PAHO 210253Z 07006KT 10SM OVC065 10/02 A2942 RMK AO2 SLP961 T01000022 57018

Decode

TAF

PAHO 202341Z 2100/2124 06012KT P6SM VCSH SCT035 OVC050

Decode

Destination Runways

ID Width Length Bearing (true) Bearing (mag) Surface Threshold Offset Overrun Length
03 151 ft / 46 m 6,706 ft / 2,044 m 54.97° 39.61° Asphalt 801 ft / 244 m 0 ft / 0 m
21 151 ft / 46 m 6,706 ft / 2,044 m 234.99° 219.63° Asphalt 0 ft / 0 m 0 ft / 0 m

Approach Navaids

Runway Type Ident Frequency Range Bearing (true) Bearing (mag) Slope Elevation
03 Localiser IHOM 109.30 MHz 18 nm / 33 km 54.99° 39.63° - 63 ft / 19 m (AMSL)
03 DME IHOM 109.30 MHz 18 nm / 33 km - - - 86 ft / 26 m (AMSL)

Popular Alternatives